Mora, MN

6:22 AM CDT on September 30, 2016 (GMT -0500)
RAWS | | Change Station

Elev 1012 ft 45.89 °N, 93.27 °W | Updated 2 hours ago

Overcast
Overcast
51.0 °F
Feels Like 51.0 °F
N
5.0
Wind Variable Wind from ENE
Gusts 9.0 mph

Today
High -- | Low -- °F
--% Chance of Precip.
Yesterday
High -- | Low -- °F
Precip. -- in
Pressure 30.44 in
Visibility 10.0 miles
Clouds Overcast 500 ft
Dew Point 51.0 °F
Humidity 100%
Rainfall in
Snow Depth Not available.
7:10 AM 6:54 PM
Waning Crescent, 0% visible
METAR KJMR 301116Z AUTO 08004KT 10SM OVC005 10/10 A3044 RMK AO2
Pressure 30.44 in
Visibility 10.0 miles
Clouds Overcast 500 ft
Dew Point 51.0 °F
Humidity 100%
Rainfall in
Snow Depth Not available.
7:10 AM 6:54 PM
Waning Crescent, 0% visible
METAR KJMR 301116Z AUTO 08004KT 10SM OVC005 10/10 A3044 RMK AO2

10-Day Weather Forecast

Almanac

Astronomy

Sep. 30, 2016 Rise Set
Actual Time
Civil Twilight
Nautical Twilight
Astronomical Twilight
Moon
Length of Visible Light
Length of Day
Tomorrow will be .
, % of the Moon is Illuminated

Today's Extremes

State Highs State Lows

Community

WunderPhotos

Upload Photos

1,942,694 photos uploaded!

WunderBlog® & News

Nearby

Air Quality

  Air Quality AQ Index Pollutant
Not available.

Snow Depth

Station Depth Elevation

Earthquake Activity

City Distance Mag. Time & Date
Minimum magnitude displayed is 2.5.

Coastal Water Temperatures

Place Temperature

Stations

Nearby Weather Stations

Station Location Temp. Windchill Dew Point Humidity Wind Precip. Elev Updated Type
                   

Watches & Warnings

There are currently no watches in effect.